createdAt,value
2023-02-14T00:00:36.700Z,26.77
2023-02-14T00:03:05.316Z,30.60
2023-02-14T00:05:35.206Z,30.53
2023-02-14T00:08:03.651Z,34.23
2023-02-14T00:10:32.149Z,35.17
2023-02-14T00:13:04.506Z,25.37
2023-02-14T00:15:31.997Z,27.30
2023-02-14T00:18:00.945Z,25.67
2023-02-14T00:20:30.418Z,29.03
2023-02-14T00:23:00.944Z,24.43
2023-02-14T00:25:29.518Z,26.27
2023-02-14T00:27:57.944Z,28.27
2023-02-14T00:30:26.581Z,33.43
2023-02-14T00:32:55.180Z,32.00
2023-02-14T00:35:23.648Z,29.60
2023-02-14T00:37:52.093Z,28.97
2023-02-14T00:40:22.120Z,25.17
2023-02-14T00:43:18.201Z,28.23
2023-02-14T00:45:46.728Z,26.37
2023-02-14T00:48:15.176Z,30.60
2023-02-14T00:50:45.864Z,29.87
2023-02-14T00:53:14.575Z,30.70
2023-02-14T00:55:46.445Z,31.17
2023-02-14T00:58:15.017Z,27.10
2023-02-14T01:00:43.526Z,26.17
2023-02-14T01:03:12.311Z,26.67
2023-02-14T01:06:07.036Z,25.90
2023-02-14T01:08:36.134Z,25.80
2023-02-14T01:11:12.005Z,28.07
2023-02-14T01:13:41.090Z,26.13
2023-02-14T01:16:12.992Z,25.17
2023-02-14T01:18:42.013Z,24.83
2023-02-14T01:21:17.913Z,25.80
2023-02-14T01:23:46.773Z,28.93
2023-02-14T01:26:18.032Z,26.30
2023-02-14T01:28:47.292Z,26.77
2023-02-14T01:31:19.367Z,25.70
2023-02-14T01:33:49.975Z,23.70
2023-02-14T01:36:21.915Z,23.07
2023-02-14T01:38:54.621Z,28.03
2023-02-14T01:41:25.968Z,26.70
2023-02-14T01:44:00.218Z,28.23
2023-02-14T01:46:39.015Z,25.50
2023-02-14T01:49:14.760Z,27.40
2023-02-14T01:51:51.996Z,24.30
2023-02-14T01:54:26.441Z,25.10
2023-02-14T01:57:01.581Z,29.50
2023-02-14T01:59:38.739Z,27.93
2023-02-14T02:02:08.431Z,25.73
2023-02-14T02:04:42.998Z,28.43
2023-02-14T02:07:22.035Z,27.00
2023-02-14T02:09:56.017Z,27.10
2023-02-14T02:12:26.100Z,28.70
2023-02-14T02:15:05.457Z,27.60
2023-02-14T02:17:54.081Z,30.13
2023-02-14T02:20:50.943Z,34.27
2023-02-14T02:24:10.085Z,28.03
2023-02-14T02:27:21.592Z,29.53
2023-02-14T02:30:36.660Z,28.43
2023-02-14T02:33:48.769Z,24.93
2023-02-14T02:36:49.105Z,27.60
2023-02-14T02:39:35.778Z,27.37
2023-02-14T02:42:17.682Z,22.97
2023-02-14T02:45:25.094Z,24.60
2023-02-14T02:48:06.201Z,26.37
2023-02-14T02:51:05.174Z,26.83
2023-02-14T02:54:04.760Z,26.87
2023-02-14T02:56:46.912Z,25.53
2023-02-14T02:59:22.309Z,25.43
2023-02-14T03:01:58.734Z,24.37
2023-02-14T03:04:46.548Z,27.07
2023-02-14T03:07:32.858Z,24.87
2023-02-14T03:10:08.862Z,25.90
2023-02-14T03:13:23.155Z,23.70
2023-02-14T03:16:27.954Z,25.50
2023-02-14T03:19:31.482Z,24.00
2023-02-14T03:22:08.592Z,24.23
2023-02-14T03:24:50.920Z,26.23
2023-02-14T03:27:29.795Z,22.13
2023-02-14T03:30:12.165Z,25.37
2023-02-14T03:32:46.239Z,22.53
2023-02-14T03:35:25.604Z,23.30
2023-02-14T03:38:04.950Z,26.40
2023-02-14T03:40:39.060Z,26.17
2023-02-14T03:43:15.157Z,21.70
2023-02-14T03:45:51.630Z,24.33
2023-02-14T03:48:24.925Z,25.23
2023-02-14T03:50:56.331Z,21.53
2023-02-14T03:53:29.420Z,25.90
2023-02-14T03:56:07.315Z,26.43
2023-02-14T03:59:07.786Z,25.47
2023-02-14T04:01:43.405Z,24.90
2023-02-14T04:04:16.046Z,20.87
2023-02-14T04:06:45.131Z,22.83
2023-02-14T04:09:19.616Z,19.90
2023-02-14T04:11:50.417Z,23.77
2023-02-14T04:14:20.303Z,23.07
2023-02-14T04:17:06.048Z,25.43
2023-02-14T04:19:34.543Z,21.07
2023-02-14T04:22:03.035Z,20.30
2023-02-14T04:24:31.525Z,20.33
2023-02-14T04:30:10.089Z,21.70
2023-02-14T04:32:38.552Z,23.27
2023-02-14T04:35:08.003Z,20.97
2023-02-14T04:37:36.926Z,24.23
2023-02-14T04:40:06.331Z,19.03
2023-02-14T04:42:34.787Z,21.77
2023-02-14T04:45:04.299Z,23.27
2023-02-14T04:47:34.340Z,23.53
2023-02-14T04:50:03.184Z,23.80
2023-02-14T04:52:31.666Z,19.33
2023-02-14T04:55:00.045Z,20.20
2023-02-14T04:57:28.684Z,23.00
2023-02-14T04:59:57.338Z,21.33
2023-02-14T05:02:25.783Z,18.33
2023-02-14T05:04:55.692Z,20.33
2023-02-14T05:07:24.103Z,22.20
2023-02-14T05:09:52.563Z,19.87
2023-02-14T05:12:21.438Z,20.83
2023-02-14T05:14:50.010Z,18.43
2023-02-14T05:17:18.522Z,18.97
2023-02-14T05:19:47.066Z,21.67
2023-02-14T05:22:23.620Z,22.33
2023-02-14T05:24:52.086Z,18.97
2023-02-14T05:27:20.536Z,21.73
2023-02-14T05:29:49.070Z,17.67
2023-02-14T05:32:17.619Z,21.83
2023-02-14T05:34:46.027Z,18.53
2023-02-14T05:37:14.572Z,19.33
2023-02-14T05:39:44.391Z,16.53
2023-02-14T05:42:12.796Z,23.37
2023-02-14T05:44:41.204Z,19.53
2023-02-14T05:47:35.218Z,21.27
2023-02-14T05:50:03.797Z,19.73
2023-02-14T05:52:32.240Z,20.03
2023-02-14T05:55:02.155Z,20.10
2023-02-14T05:57:33.477Z,17.87
2023-02-14T06:00:01.977Z,19.53
2023-02-14T06:02:30.485Z,20.70
2023-02-14T06:04:59.116Z,22.27
2023-02-14T06:07:27.691Z,22.33
2023-02-14T06:09:56.104Z,29.63
2023-02-14T06:12:26.133Z,30.23
2023-02-14T06:14:54.708Z,26.87
2023-02-14T06:17:52.954Z,24.67
2023-02-14T06:20:22.619Z,21.33
2023-02-14T06:22:51.538Z,30.13
2023-02-14T06:25:49.762Z,31.27
2023-02-14T06:28:19.636Z,33.13
2023-02-14T06:30:48.457Z,24.87
2023-02-14T06:33:17.015Z,25.00
2023-02-14T06:35:45.524Z,30.83
2023-02-14T06:38:14.086Z,27.60
2023-02-14T06:40:42.490Z,24.70
2023-02-14T06:43:10.947Z,29.40
2023-02-14T06:45:43.746Z,28.97
2023-02-14T06:48:12.264Z,26.00
2023-02-14T06:50:40.735Z,29.97
2023-02-14T06:53:09.186Z,31.53
2023-02-14T06:55:37.624Z,23.73
2023-02-14T06:58:06.080Z,26.07
2023-02-14T07:00:34.594Z,25.93
2023-02-14T07:03:04.632Z,27.03
2023-02-14T07:05:33.522Z,24.80
2023-02-14T07:08:02.324Z,27.00
2023-02-14T07:10:30.914Z,28.13
2023-02-14T07:12:59.341Z,26.73
2023-02-14T07:15:28.413Z,27.80
2023-02-14T07:17:56.913Z,27.80
2023-02-14T07:20:27.223Z,25.30
2023-02-14T07:22:55.759Z,26.70
2023-02-14T07:25:24.446Z,26.97
2023-02-14T07:27:52.892Z,24.50
2023-02-14T07:30:46.155Z,29.40
2023-02-14T07:33:14.822Z,24.83
2023-02-14T07:35:44.856Z,27.10
2023-02-14T07:38:13.362Z,25.30
2023-02-14T07:40:41.772Z,27.60
2023-02-14T07:43:10.549Z,28.20
2023-02-14T07:45:39.005Z,22.00
2023-02-14T07:48:08.646Z,24.03
2023-02-14T07:50:37.057Z,25.17
2023-02-14T07:53:08.668Z,23.63
2023-02-14T07:55:37.252Z,24.03
2023-02-14T07:58:05.749Z,26.70
2023-02-14T08:00:34.285Z,24.90
2023-02-14T08:03:02.783Z,25.27
2023-02-14T08:05:31.278Z,25.97
2023-02-14T08:07:59.752Z,19.90
2023-02-14T08:10:29.675Z,19.03
2023-02-14T08:12:59.704Z,21.77
2023-02-14T08:15:46.806Z,21.70
2023-02-14T08:18:15.940Z,20.33
2023-02-14T08:20:44.852Z,20.60
2023-02-14T08:23:13.679Z,20.77
2023-02-14T08:25:43.777Z,21.13
2023-02-14T08:28:13.761Z,20.17
2023-02-14T08:30:43.847Z,21.20
2023-02-14T08:33:31.131Z,20.93
2023-02-14T08:36:00.272Z,19.10
2023-02-14T08:38:28.781Z,26.53
2023-02-14T08:41:05.865Z,23.03
2023-02-14T08:43:36.184Z,19.60
2023-02-14T08:46:04.974Z,20.70
2023-02-14T08:48:33.656Z,22.33
2023-02-14T08:51:07.335Z,20.93
2023-02-14T08:53:36.166Z,21.70
2023-02-14T08:56:09.307Z,21.33
2023-02-14T08:58:38.551Z,22.77
2023-02-14T09:01:10.564Z,19.60
2023-02-14T09:03:39.637Z,21.30
2023-02-14T09:06:10.843Z,24.53
2023-02-14T09:08:40.699Z,21.00
2023-02-14T09:11:14.056Z,22.67
2023-02-14T09:14:07.022Z,22.60
2023-02-14T09:16:35.617Z,23.20
2023-02-14T09:19:29.224Z,26.77
2023-02-14T09:21:57.633Z,30.07
2023-02-14T09:24:27.263Z,26.83
2023-02-14T09:26:58.023Z,25.33
2023-02-14T09:29:26.975Z,32.00
2023-02-14T09:31:56.363Z,27.23
2023-02-14T09:34:42.434Z,25.93
2023-02-14T09:37:29.205Z,29.37
2023-02-14T09:39:57.720Z,28.70
2023-02-14T09:42:46.051Z,26.97
2023-02-14T09:45:40.841Z,26.47
2023-02-14T09:48:20.698Z,24.10
2023-02-14T09:50:54.356Z,26.30
2023-02-14T09:53:28.979Z,26.00
2023-02-14T09:56:07.674Z,25.73
2023-02-14T09:58:47.246Z,25.63
2023-02-14T10:01:59.052Z,22.53
2023-02-14T10:04:39.765Z,22.27
2023-02-14T10:07:20.360Z,19.00
2023-02-14T10:09:58.912Z,17.27
2023-02-14T10:12:34.208Z,17.23
2023-02-14T10:15:27.509Z,18.93
2023-02-14T10:18:02.096Z,19.83
2023-02-14T10:20:34.906Z,15.63
2023-02-14T10:23:32.800Z,17.53
2023-02-14T10:26:06.389Z,17.83
2023-02-14T10:28:41.461Z,17.77
2023-02-14T10:31:27.945Z,22.47
2023-02-14T10:34:02.854Z,21.27
2023-02-14T10:36:52.209Z,20.20
2023-02-14T10:39:57.558Z,16.63
2023-02-14T10:42:46.126Z,16.67
2023-02-14T10:45:23.978Z,17.23
2023-02-14T10:48:30.098Z,16.30
2023-02-14T10:51:34.369Z,15.73
2023-02-14T10:54:21.098Z,18.03
2023-02-14T10:57:00.020Z,15.47
2023-02-14T10:59:36.302Z,13.80
2023-02-14T11:02:07.478Z,13.20
2023-02-14T11:04:37.417Z,14.80
2023-02-14T11:07:12.899Z,14.97
2023-02-14T11:09:41.378Z,14.33
2023-02-14T11:12:10.504Z,15.20
2023-02-14T11:14:41.277Z,15.40
2023-02-14T11:17:29.917Z,13.50
2023-02-14T11:20:03.387Z,15.03
2023-02-14T11:22:33.482Z,13.23
2023-02-14T11:25:07.589Z,19.40
2023-02-14T11:27:37.863Z,23.60
2023-02-14T11:30:19.901Z,19.93
2023-02-14T11:32:56.048Z,38.63
2023-02-14T11:35:34.410Z,15.83
2023-02-14T11:38:06.587Z,13.90
2023-02-14T11:40:38.632Z,15.53
2023-02-14T11:43:30.294Z,13.17
2023-02-14T11:46:15.716Z,12.53
2023-02-14T11:48:59.563Z,11.83
2023-02-14T11:52:13.938Z,14.73
2023-02-14T11:55:01.475Z,13.97
2023-02-14T11:57:36.266Z,12.90
2023-02-14T12:00:15.875Z,12.07
2023-02-14T12:02:48.974Z,10.90
2023-02-14T12:05:22.376Z,11.43
2023-02-14T12:07:56.259Z,10.67
2023-02-14T12:10:29.244Z,9.97
2023-02-14T12:13:02.167Z,11.97
2023-02-14T12:15:41.352Z,11.40
2023-02-14T12:18:42.078Z,13.90
2023-02-14T12:21:32.469Z,11.67
2023-02-14T12:24:12.935Z,14.20
2023-02-14T12:27:21.162Z,13.33
2023-02-14T12:29:55.623Z,12.73
2023-02-14T12:32:51.495Z,9.93
2023-02-14T12:35:34.865Z,11.53
2023-02-14T12:38:17.106Z,12.07
2023-02-14T12:41:10.364Z,11.53
2023-02-14T12:43:50.820Z,12.03
2023-02-14T12:46:56.278Z,13.03
2023-02-14T12:50:09.776Z,13.80
2023-02-14T12:53:26.236Z,12.43
2023-02-14T12:56:32.432Z,12.43
2023-02-14T12:59:28.148Z,11.87
2023-02-14T13:03:01.880Z,12.07
2023-02-14T13:05:48.312Z,13.27
2023-02-14T13:09:01.233Z,10.80
2023-02-14T13:11:48.084Z,10.17
2023-02-14T13:14:46.625Z,10.37
2023-02-14T13:17:28.425Z,12.57
2023-02-14T13:20:07.316Z,13.37
2023-02-14T13:22:37.469Z,14.17
2023-02-14T13:25:36.021Z,14.47
2023-02-14T13:28:20.618Z,13.07
2023-02-14T13:30:49.497Z,12.83
2023-02-14T13:33:40.200Z,14.50
2023-02-14T13:36:13.035Z,14.37
2023-02-14T13:38:49.944Z,13.83
2023-02-14T13:41:20.570Z,13.43
2023-02-14T13:43:54.056Z,13.87
2023-02-14T13:46:53.619Z,12.53
2023-02-14T13:49:51.219Z,12.53
2023-02-14T13:52:47.042Z,15.77
2023-02-14T13:55:21.406Z,15.97
2023-02-14T13:58:04.225Z,13.87
2023-02-14T14:00:43.233Z,12.77
2023-02-14T14:03:17.367Z,15.27
2023-02-14T14:06:07.740Z,17.83
2023-02-14T14:08:48.887Z,15.30
2023-02-14T14:11:57.261Z,17.27
2023-02-14T14:14:37.947Z,14.73
2023-02-14T14:17:25.934Z,15.93
2023-02-14T14:20:40.629Z,14.03
2023-02-14T14:23:35.196Z,14.53
2023-02-14T14:26:24.987Z,15.57
2023-02-14T14:28:53.533Z,14.13
2023-02-14T14:31:22.726Z,14.70
2023-02-14T14:34:02.249Z,14.23
2023-02-14T14:36:30.841Z,15.83
2023-02-14T14:38:59.347Z,14.80
2023-02-14T14:41:31.336Z,13.40
2023-02-14T14:44:01.253Z,14.13
2023-02-14T14:46:29.925Z,14.97
2023-02-14T14:49:00.187Z,16.30
2023-02-14T14:51:33.433Z,15.20
2023-02-14T14:54:06.130Z,13.03
2023-02-14T14:56:39.732Z,17.57
2023-02-14T14:59:20.729Z,17.17
2023-02-14T15:01:51.409Z,23.23
2023-02-14T15:04:29.494Z,16.80
2023-02-14T15:07:18.282Z,18.73
2023-02-14T15:09:46.926Z,14.00
2023-02-14T15:12:42.688Z,12.60
2023-02-14T15:15:16.741Z,13.80
2023-02-14T15:17:46.893Z,12.87
2023-02-14T15:20:21.707Z,12.20
2023-02-14T15:22:54.097Z,12.10
2023-02-14T15:25:27.783Z,15.23
2023-02-14T15:27:57.340Z,16.67
2023-02-14T15:30:30.789Z,15.83
2023-02-14T15:33:01.580Z,13.13
2023-02-14T15:35:35.554Z,13.37
2023-02-14T15:38:08.135Z,11.87
2023-02-14T15:40:39.047Z,13.40
2023-02-14T15:43:25.067Z,14.30
2023-02-14T15:45:58.707Z,13.87
2023-02-14T15:48:33.441Z,12.40
2023-02-14T15:51:06.368Z,12.57
2023-02-14T15:53:44.100Z,13.47
2023-02-14T15:56:21.455Z,13.43
2023-02-14T15:58:50.969Z,11.70
2023-02-14T16:01:22.764Z,13.73
2023-02-14T16:03:57.447Z,14.30
2023-02-14T16:06:44.313Z,14.90
2023-02-14T16:09:27.293Z,11.33
2023-02-14T16:11:56.254Z,12.17
2023-02-14T16:14:33.160Z,11.53
2023-02-14T16:17:05.345Z,13.30
2023-02-14T16:19:41.632Z,12.43
2023-02-14T16:22:14.100Z,12.93
2023-02-14T16:24:42.550Z,14.70
2023-02-14T16:27:13.407Z,13.00
2023-02-14T16:29:41.983Z,13.33
2023-02-14T16:32:20.979Z,13.90
2023-02-14T16:34:50.125Z,13.97
2023-02-14T16:37:26.104Z,14.90
2023-02-14T16:39:57.847Z,12.77
2023-02-14T16:42:26.703Z,15.07
2023-02-14T16:44:56.051Z,12.83
2023-02-14T16:47:27.734Z,12.50
2023-02-14T16:49:56.354Z,14.10
2023-02-14T16:52:30.202Z,13.20
2023-02-14T16:54:59.288Z,12.77
2023-02-14T16:57:33.522Z,13.03
2023-02-14T17:00:02.682Z,17.27
2023-02-14T17:02:31.702Z,14.17
2023-02-14T17:05:00.328Z,20.13
2023-02-14T17:07:33.267Z,18.27
2023-02-14T17:10:07.014Z,14.20
2023-02-14T17:12:41.772Z,15.60
2023-02-14T17:15:16.235Z,20.17
2023-02-14T17:17:48.126Z,15.40
2023-02-14T17:20:19.822Z,16.30
2023-02-14T17:22:49.857Z,14.70
2023-02-14T17:25:18.564Z,17.93
2023-02-14T17:27:47.007Z,19.67
2023-02-14T17:30:16.892Z,25.03
2023-02-14T17:32:45.892Z,24.77
2023-02-14T17:35:15.938Z,19.23
2023-02-14T17:37:44.575Z,18.40
2023-02-14T17:40:15.629Z,19.40
2023-02-14T17:42:45.031Z,18.67
2023-02-14T17:45:13.996Z,15.50
2023-02-14T17:47:43.443Z,20.23
2023-02-14T17:50:13.161Z,21.03
2023-02-14T17:52:57.424Z,26.53
2023-02-14T17:55:27.252Z,16.43
2023-02-14T17:57:55.714Z,21.10
2023-02-14T18:00:25.514Z,36.37
2023-02-14T18:02:53.992Z,20.97
2023-02-14T18:05:22.426Z,17.67
2023-02-14T18:07:53.012Z,17.03
2023-02-14T18:10:21.767Z,17.23
2023-02-14T18:12:51.553Z,16.60
2023-02-14T18:15:20.830Z,18.17
2023-02-14T18:17:51.344Z,16.70
2023-02-14T18:20:23.377Z,15.57
2023-02-14T18:22:51.933Z,18.40
2023-02-14T18:25:20.437Z,15.27
2023-02-14T18:27:50.251Z,15.10
2023-02-14T18:30:19.242Z,15.80
2023-02-14T18:32:47.932Z,18.33
2023-02-14T18:35:16.562Z,18.60
2023-02-14T18:37:45.400Z,20.07
2023-02-14T18:40:20.160Z,17.50
2023-02-14T18:42:50.055Z,18.33
2023-02-14T18:45:18.751Z,16.77
2023-02-14T18:47:47.386Z,16.53
2023-02-14T18:50:15.872Z,17.43
2023-02-14T18:52:44.649Z,15.23
2023-02-14T18:55:13.500Z,15.87
2023-02-14T18:57:42.138Z,16.17
2023-02-14T19:00:14.546Z,16.07
2023-02-14T19:02:43.732Z,15.30
2023-02-14T19:05:12.616Z,18.60
2023-02-14T19:07:41.174Z,16.57
2023-02-14T19:10:11.780Z,17.17
2023-02-14T19:12:40.336Z,17.93
2023-02-14T19:15:11.232Z,21.30
2023-02-14T19:17:39.866Z,22.07
2023-02-14T19:20:09.932Z,28.40
2023-02-14T19:22:39.604Z,25.47
2023-02-14T19:25:09.546Z,24.83
2023-02-14T19:27:38.128Z,28.87
2023-02-14T19:30:08.521Z,24.13
2023-02-14T19:32:38.374Z,20.10
2023-02-14T19:35:07.897Z,24.57
2023-02-14T19:37:36.365Z,24.37
2023-02-14T19:40:06.502Z,24.17
2023-02-14T19:42:35.616Z,25.17
2023-02-14T19:45:04.331Z,20.50
2023-02-14T19:47:46.314Z,22.90
2023-02-14T19:50:17.697Z,24.07
2023-02-14T19:52:46.348Z,21.17
2023-02-14T19:55:23.527Z,27.67
2023-02-14T19:57:52.023Z,23.00
2023-02-14T20:00:21.792Z,23.63
2023-02-14T20:02:50.408Z,26.17
2023-02-14T20:05:22.900Z,25.17
2023-02-14T20:07:52.048Z,30.87
2023-02-14T20:10:20.888Z,30.60
2023-02-14T20:12:49.575Z,26.90
2023-02-14T20:15:18.259Z,32.43
2023-02-14T20:17:47.141Z,23.83
2023-02-14T20:20:16.661Z,24.70
2023-02-14T20:22:46.708Z,27.03
2023-02-14T20:25:15.212Z,27.23
2023-02-14T20:27:43.824Z,24.80
2023-02-14T20:30:14.442Z,28.27
2023-02-14T20:32:42.947Z,31.53
2023-02-14T20:35:11.595Z,32.03
2023-02-14T20:37:40.063Z,29.37
2023-02-14T20:40:12.572Z,28.80
2023-02-14T20:42:41.019Z,27.50
2023-02-14T20:45:10.024Z,29.40
2023-02-14T20:47:38.475Z,28.63
2023-02-14T20:50:08.692Z,29.03
2023-02-14T20:52:38.154Z,28.40
2023-02-14T20:55:07.457Z,33.20
2023-02-14T20:57:37.293Z,32.63
2023-02-14T21:00:08.736Z,32.27
2023-02-14T21:02:37.200Z,30.83
2023-02-14T21:05:06.678Z,29.23
2023-02-14T21:07:35.146Z,31.50
2023-02-14T21:10:03.788Z,29.57
2023-02-14T21:12:58.866Z,28.07
2023-02-14T21:15:27.609Z,28.43
2023-02-14T21:17:56.128Z,34.37
2023-02-14T21:20:24.669Z,35.17
2023-02-14T21:22:56.837Z,33.27
2023-02-14T21:25:26.731Z,32.87
2023-02-14T21:27:55.357Z,31.33
2023-02-14T21:30:25.330Z,30.83
2023-02-14T21:32:53.726Z,30.73
2023-02-14T21:35:22.201Z,33.93
2023-02-14T21:37:50.624Z,34.20
2023-02-14T21:40:19.755Z,33.73
2023-02-14T21:42:48.302Z,31.63
2023-02-14T21:45:34.634Z,32.63
2023-02-14T21:48:22.042Z,33.43
2023-02-14T21:50:50.588Z,37.63
2023-02-14T21:53:19.868Z,36.00
2023-02-14T21:55:48.360Z,37.10
2023-02-14T21:58:16.876Z,34.43
2023-02-14T22:00:48.039Z,34.47
2023-02-14T22:03:17.959Z,35.27
2023-02-14T22:05:46.548Z,51.53
2023-02-14T22:08:15.007Z,54.03
2023-02-14T22:10:43.449Z,43.87
2023-02-14T22:13:11.974Z,32.20
2023-02-14T22:15:41.345Z,43.63
2023-02-14T22:18:09.878Z,51.97
2023-02-14T22:20:40.100Z,50.53
2023-02-14T22:23:09.014Z,69.27
2023-02-14T22:25:37.568Z,67.53
2023-02-14T22:28:06.262Z,64.60
2023-02-14T22:30:34.849Z,67.63
2023-02-14T22:33:03.312Z,46.97
2023-02-14T22:35:32.115Z,45.20
2023-02-14T22:38:01.976Z,39.00
2023-02-14T22:40:30.673Z,38.57
2023-02-14T22:43:00.729Z,36.93
2023-02-14T22:45:29.225Z,46.60
2023-02-14T22:48:00.605Z,43.77
2023-02-14T22:50:29.085Z,41.90
2023-02-14T22:52:57.626Z,40.07
2023-02-14T22:55:27.476Z,44.37
2023-02-14T22:57:55.926Z,42.73
2023-02-14T23:00:25.348Z,43.77
2023-02-14T23:02:53.874Z,41.17
2023-02-14T23:05:22.368Z,41.67
2023-02-14T23:07:50.798Z,40.37
2023-02-14T23:10:19.519Z,36.20
2023-02-14T23:13:06.579Z,40.03
2023-02-14T23:15:52.635Z,41.23
2023-02-14T23:18:38.535Z,41.37
2023-02-14T23:21:32.021Z,39.20
2023-02-14T23:24:00.442Z,38.90
2023-02-14T23:26:28.965Z,41.70
2023-02-14T23:28:58.837Z,35.77
2023-02-14T23:31:27.524Z,39.10
2023-02-14T23:33:56.086Z,41.83
2023-02-14T23:36:25.114Z,38.50
2023-02-14T23:38:53.640Z,41.63
2023-02-14T23:41:39.534Z,38.90
2023-02-14T23:44:09.452Z,40.53
2023-02-14T23:47:05.327Z,42.30
2023-02-14T23:49:36.192Z,42.43
2023-02-14T23:52:07.562Z,38.83
2023-02-14T23:54:37.565Z,43.27
2023-02-14T23:57:07.560Z,40.33
2023-02-14T23:59:37.798Z,41.23
